sensor_id;sensor_type;location;lat;lon;timestamp;P1;durP1;ratioP1;P2;durP2;ratioP2
6463;SDS011;3265;42.694;23.282;2023-02-07T00:01:20;11.57;;;5.90;;
6463;SDS011;3265;42.694;23.282;2023-02-07T00:03:48;10.00;;;6.03;;
6463;SDS011;3265;42.694;23.282;2023-02-07T00:06:18;10.13;;;6.00;;
6463;SDS011;3265;42.694;23.282;2023-02-07T00:08:47;10.67;;;6.57;;
6463;SDS011;3265;42.694;23.282;2023-02-07T00:11:16;13.37;;;6.80;;
6463;SDS011;3265;42.694;23.282;2023-02-07T00:13:44;10.43;;;6.77;;
6463;SDS011;3265;42.694;23.282;2023-02-07T00:16:14;9.80;;;6.03;;
6463;SDS011;3265;42.694;23.282;2023-02-07T00:18:41;10.50;;;6.23;;
6463;SDS011;3265;42.694;23.282;2023-02-07T00:21:09;12.50;;;6.67;;
6463;SDS011;3265;42.694;23.282;2023-02-07T00:23:38;11.93;;;6.10;;
6463;SDS011;3265;42.694;23.282;2023-02-07T00:26:06;13.27;;;6.17;;
6463;SDS011;3265;42.694;23.282;2023-02-07T00:28:33;12.63;;;6.53;;
6463;SDS011;3265;42.694;23.282;2023-02-07T00:31:01;10.33;;;6.00;;
6463;SDS011;3265;42.694;23.282;2023-02-07T00:33:30;11.17;;;6.43;;
6463;SDS011;3265;42.694;23.282;2023-02-07T00:35:57;11.53;;;6.53;;
6463;SDS011;3265;42.694;23.282;2023-02-07T00:38:25;12.00;;;6.50;;
6463;SDS011;3265;42.694;23.282;2023-02-07T00:40:52;11.47;;;6.13;;
6463;SDS011;3265;42.694;23.282;2023-02-07T00:43:19;11.97;;;6.47;;
6463;SDS011;3265;42.694;23.282;2023-02-07T00:45:46;11.43;;;6.20;;
6463;SDS011;3265;42.694;23.282;2023-02-07T00:48:12;9.83;;;5.97;;
6463;SDS011;3265;42.694;23.282;2023-02-07T00:50:41;11.60;;;6.20;;
6463;SDS011;3265;42.694;23.282;2023-02-07T00:53:08;9.97;;;6.60;;
6463;SDS011;3265;42.694;23.282;2023-02-07T00:55:35;10.30;;;6.07;;
6463;SDS011;3265;42.694;23.282;2023-02-07T00:58:02;10.43;;;6.20;;
6463;SDS011;3265;42.694;23.282;2023-02-07T01:00:29;10.17;;;6.10;;
6463;SDS011;3265;42.694;23.282;2023-02-07T01:02:56;11.07;;;5.97;;
6463;SDS011;3265;42.694;23.282;2023-02-07T01:05:22;10.00;;;5.97;;
6463;SDS011;3265;42.694;23.282;2023-02-07T01:07:51;8.20;;;5.77;;
6463;SDS011;3265;42.694;23.282;2023-02-07T01:10:18;10.30;;;5.90;;
6463;SDS011;3265;42.694;23.282;2023-02-07T01:12:45;9.83;;;5.90;;
6463;SDS011;3265;42.694;23.282;2023-02-07T01:15:12;9.40;;;6.00;;
6463;SDS011;3265;42.694;23.282;2023-02-07T01:17:39;9.73;;;5.80;;
6463;SDS011;3265;42.694;23.282;2023-02-07T01:20:06;10.60;;;5.83;;
6463;SDS011;3265;42.694;23.282;2023-02-07T01:22:34;8.80;;;5.80;;
6463;SDS011;3265;42.694;23.282;2023-02-07T01:25:04;9.13;;;6.00;;
6463;SDS011;3265;42.694;23.282;2023-02-07T01:27:32;11.50;;;6.23;;
6463;SDS011;3265;42.694;23.282;2023-02-07T01:30:00;9.83;;;6.13;;
6463;SDS011;3265;42.694;23.282;2023-02-07T01:32:27;9.43;;;5.77;;
6463;SDS011;3265;42.694;23.282;2023-02-07T01:34:54;10.90;;;6.23;;
6463;SDS011;3265;42.694;23.282;2023-02-07T01:37:21;15.63;;;6.73;;
6463;SDS011;3265;42.694;23.282;2023-02-07T01:39:48;10.00;;;5.83;;
6463;SDS011;3265;42.694;23.282;2023-02-07T01:42:16;10.37;;;6.37;;
6463;SDS011;3265;42.694;23.282;2023-02-07T01:45:00;10.67;;;6.20;;
6463;SDS011;3265;42.694;23.282;2023-02-07T01:47:30;11.10;;;5.77;;
6463;SDS011;3265;42.694;23.282;2023-02-07T01:49:59;12.00;;;6.63;;
6463;SDS011;3265;42.694;23.282;2023-02-07T01:52:27;9.47;;;6.23;;
6463;SDS011;3265;42.694;23.282;2023-02-07T01:54:59;9.73;;;6.07;;
6463;SDS011;3265;42.694;23.282;2023-02-07T01:57:29;9.97;;;6.10;;
6463;SDS011;3265;42.694;23.282;2023-02-07T01:59:56;10.20;;;6.47;;
6463;SDS011;3265;42.694;23.282;2023-02-07T02:02:25;9.57;;;6.33;;
6463;SDS011;3265;42.694;23.282;2023-02-07T02:04:56;9.50;;;6.00;;
6463;SDS011;3265;42.694;23.282;2023-02-07T02:07:24;8.93;;;6.00;;
6463;SDS011;3265;42.694;23.282;2023-02-07T02:09:53;14.03;;;6.53;;
6463;SDS011;3265;42.694;23.282;2023-02-07T02:12:24;10.10;;;6.40;;
6463;SDS011;3265;42.694;23.282;2023-02-07T02:15:22;10.40;;;5.67;;
6463;SDS011;3265;42.694;23.282;2023-02-07T02:18:02;10.80;;;6.10;;
6463;SDS011;3265;42.694;23.282;2023-02-07T02:23:46;11.67;;;6.20;;
6463;SDS011;3265;42.694;23.282;2023-02-07T02:26:36;8.37;;;5.70;;
6463;SDS011;3265;42.694;23.282;2023-02-07T02:29:30;11.77;;;7.97;;
6463;SDS011;3265;42.694;23.282;2023-02-07T02:35:33;9.83;;;6.10;;
6463;SDS011;3265;42.694;23.282;2023-02-07T02:38:09;10.23;;;5.90;;
6463;SDS011;3265;42.694;23.282;2023-02-07T02:40:45;9.30;;;5.90;;
6463;SDS011;3265;42.694;23.282;2023-02-07T02:43:17;10.17;;;6.10;;
6463;SDS011;3265;42.694;23.282;2023-02-07T02:45:52;10.60;;;6.10;;
6463;SDS011;3265;42.694;23.282;2023-02-07T02:48:22;10.20;;;6.10;;
6463;SDS011;3265;42.694;23.282;2023-02-07T02:50:51;11.87;;;6.10;;
6463;SDS011;3265;42.694;23.282;2023-02-07T02:53:20;11.00;;;5.67;;
6463;SDS011;3265;42.694;23.282;2023-02-07T02:58:50;10.10;;;5.40;;
6463;SDS011;3265;42.694;23.282;2023-02-07T03:01:30;8.70;;;5.60;;
6463;SDS011;3265;42.694;23.282;2023-02-07T03:04:13;10.53;;;5.77;;
6463;SDS011;3265;42.694;23.282;2023-02-07T03:07:00;8.23;;;4.90;;
6463;SDS011;3265;42.694;23.282;2023-02-07T03:09:36;9.17;;;5.50;;
6463;SDS011;3265;42.694;23.282;2023-02-07T03:12:14;8.47;;;5.87;;
6463;SDS011;3265;42.694;23.282;2023-02-07T03:14:49;9.90;;;5.40;;
6463;SDS011;3265;42.694;23.282;2023-02-07T03:17:25;8.17;;;5.30;;
6463;SDS011;3265;42.694;23.282;2023-02-07T03:19:57;8.07;;;5.30;;
6463;SDS011;3265;42.694;23.282;2023-02-07T03:22:33;8.87;;;5.50;;
6463;SDS011;3265;42.694;23.282;2023-02-07T03:25:01;8.20;;;5.37;;
6463;SDS011;3265;42.694;23.282;2023-02-07T03:27:29;9.17;;;5.43;;
6463;SDS011;3265;42.694;23.282;2023-02-07T03:29:59;9.07;;;5.47;;
6463;SDS011;3265;42.694;23.282;2023-02-07T03:32:29;9.30;;;5.90;;
6463;SDS011;3265;42.694;23.282;2023-02-07T03:34:59;7.93;;;5.40;;
6463;SDS011;3265;42.694;23.282;2023-02-07T03:37:32;8.63;;;5.53;;
6463;SDS011;3265;42.694;23.282;2023-02-07T03:40:03;10.47;;;6.00;;
6463;SDS011;3265;42.694;23.282;2023-02-07T03:42:32;10.70;;;6.20;;
6463;SDS011;3265;42.694;23.282;2023-02-07T03:45:04;7.00;;;5.23;;
6463;SDS011;3265;42.694;23.282;2023-02-07T03:47:34;11.47;;;6.27;;
6463;SDS011;3265;42.694;23.282;2023-02-07T03:50:01;10.57;;;6.00;;
6463;SDS011;3265;42.694;23.282;2023-02-07T03:52:28;9.03;;;5.83;;
6463;SDS011;3265;42.694;23.282;2023-02-07T03:54:57;10.90;;;6.33;;
6463;SDS011;3265;42.694;23.282;2023-02-07T03:57:24;15.03;;;7.17;;
6463;SDS011;3265;42.694;23.282;2023-02-07T03:59:50;13.70;;;7.77;;
6463;SDS011;3265;42.694;23.282;2023-02-07T04:02:17;26.70;;;11.17;;
6463;SDS011;3265;42.694;23.282;2023-02-07T04:04:44;29.60;;;13.63;;
6463;SDS011;3265;42.694;23.282;2023-02-07T04:07:11;29.27;;;12.93;;
6463;SDS011;3265;42.694;23.282;2023-02-07T04:09:38;28.17;;;12.97;;
6463;SDS011;3265;42.694;23.282;2023-02-07T04:12:06;27.77;;;12.47;;
6463;SDS011;3265;42.694;23.282;2023-02-07T04:14:34;24.90;;;12.20;;
6463;SDS011;3265;42.694;23.282;2023-02-07T04:17:00;28.10;;;13.80;;
6463;SDS011;3265;42.694;23.282;2023-02-07T04:19:27;20.77;;;10.87;;
6463;SDS011;3265;42.694;23.282;2023-02-07T04:21:54;14.60;;;8.30;;
6463;SDS011;3265;42.694;23.282;2023-02-07T04:24:21;15.17;;;8.00;;
6463;SDS011;3265;42.694;23.282;2023-02-07T04:26:48;12.87;;;7.43;;
6463;SDS011;3265;42.694;23.282;2023-02-07T04:29:16;12.17;;;7.30;;
6463;SDS011;3265;42.694;23.282;2023-02-07T04:31:43;12.73;;;8.20;;
6463;SDS011;3265;42.694;23.282;2023-02-07T04:34:10;12.87;;;7.53;;
6463;SDS011;3265;42.694;23.282;2023-02-07T04:36:37;11.57;;;7.40;;
6463;SDS011;3265;42.694;23.282;2023-02-07T04:39:04;13.10;;;7.47;;
6463;SDS011;3265;42.694;23.282;2023-02-07T04:41:31;12.07;;;7.47;;
6463;SDS011;3265;42.694;23.282;2023-02-07T04:43:58;16.53;;;8.00;;
6463;SDS011;3265;42.694;23.282;2023-02-07T04:46:26;16.47;;;7.57;;
6463;SDS011;3265;42.694;23.282;2023-02-07T04:48:53;12.40;;;7.60;;
6463;SDS011;3265;42.694;23.282;2023-02-07T04:51:20;17.50;;;9.23;;
6463;SDS011;3265;42.694;23.282;2023-02-07T04:53:46;18.93;;;9.77;;
6463;SDS011;3265;42.694;23.282;2023-02-07T04:56:13;20.27;;;10.63;;
6463;SDS011;3265;42.694;23.282;2023-02-07T04:58:40;20.93;;;10.00;;
6463;SDS011;3265;42.694;23.282;2023-02-07T05:01:07;16.90;;;9.03;;
6463;SDS011;3265;42.694;23.282;2023-02-07T05:03:35;16.73;;;9.60;;
6463;SDS011;3265;42.694;23.282;2023-02-07T05:06:02;20.63;;;10.10;;
6463;SDS011;3265;42.694;23.282;2023-02-07T05:08:30;23.23;;;11.57;;
6463;SDS011;3265;42.694;23.282;2023-02-07T05:10:56;30.60;;;16.50;;
6463;SDS011;3265;42.694;23.282;2023-02-07T05:13:24;36.13;;;16.97;;
6463;SDS011;3265;42.694;23.282;2023-02-07T05:15:51;31.70;;;15.97;;
6463;SDS011;3265;42.694;23.282;2023-02-07T05:18:18;28.93;;;14.97;;
6463;SDS011;3265;42.694;23.282;2023-02-07T05:20:46;33.97;;;17.23;;
6463;SDS011;3265;42.694;23.282;2023-02-07T05:23:13;34.27;;;16.90;;
6463;SDS011;3265;42.694;23.282;2023-02-07T05:25:41;32.70;;;15.43;;
6463;SDS011;3265;42.694;23.282;2023-02-07T05:28:08;28.03;;;14.33;;
6463;SDS011;3265;42.694;23.282;2023-02-07T05:30:35;28.97;;;15.33;;
6463;SDS011;3265;42.694;23.282;2023-02-07T05:33:02;31.67;;;16.20;;
6463;SDS011;3265;42.694;23.282;2023-02-07T05:35:28;31.60;;;17.57;;
6463;SDS011;3265;42.694;23.282;2023-02-07T05:37:56;35.80;;;17.00;;
6463;SDS011;3265;42.694;23.282;2023-02-07T05:40:23;37.50;;;18.30;;
6463;SDS011;3265;42.694;23.282;2023-02-07T05:42:50;38.20;;;18.50;;
6463;SDS011;3265;42.694;23.282;2023-02-07T05:45:17;30.87;;;16.20;;
6463;SDS011;3265;42.694;23.282;2023-02-07T05:47:44;30.37;;;16.33;;
6463;SDS011;3265;42.694;23.282;2023-02-07T05:50:11;30.70;;;14.80;;
6463;SDS011;3265;42.694;23.282;2023-02-07T05:52:38;33.20;;;15.40;;
6463;SDS011;3265;42.694;23.282;2023-02-07T05:55:07;30.73;;;14.63;;
6463;SDS011;3265;42.694;23.282;2023-02-07T05:57:35;34.60;;;17.23;;
6463;SDS011;3265;42.694;23.282;2023-02-07T06:00:02;36.37;;;17.83;;
6463;SDS011;3265;42.694;23.282;2023-02-07T06:02:30;31.23;;;15.73;;
6463;SDS011;3265;42.694;23.282;2023-02-07T06:04:57;31.53;;;15.13;;
6463;SDS011;3265;42.694;23.282;2023-02-07T06:07:24;33.30;;;16.60;;
6463;SDS011;3265;42.694;23.282;2023-02-07T06:09:51;28.43;;;13.37;;
6463;SDS011;3265;42.694;23.282;2023-02-07T06:12:20;30.53;;;14.17;;
6463;SDS011;3265;42.694;23.282;2023-02-07T06:14:48;27.80;;;15.40;;
6463;SDS011;3265;42.694;23.282;2023-02-07T06:17:21;28.77;;;15.87;;
6463;SDS011;3265;42.694;23.282;2023-02-07T06:19:48;29.67;;;15.53;;
6463;SDS011;3265;42.694;23.282;2023-02-07T06:22:15;29.07;;;15.20;;
6463;SDS011;3265;42.694;23.282;2023-02-07T06:24:42;28.83;;;15.07;;
6463;SDS011;3265;42.694;23.282;2023-02-07T06:27:11;29.03;;;15.47;;
6463;SDS011;3265;42.694;23.282;2023-02-07T06:29:40;26.37;;;14.37;;
6463;SDS011;3265;42.694;23.282;2023-02-07T06:32:07;28.67;;;14.50;;
6463;SDS011;3265;42.694;23.282;2023-02-07T06:34:34;29.03;;;14.47;;
6463;SDS011;3265;42.694;23.282;2023-02-07T06:37:04;33.90;;;16.03;;
6463;SDS011;3265;42.694;23.282;2023-02-07T06:39:31;30.93;;;15.37;;
6463;SDS011;3265;42.694;23.282;2023-02-07T06:41:58;34.67;;;17.20;;
6463;SDS011;3265;42.694;23.282;2023-02-07T06:44:25;32.53;;;16.87;;
6463;SDS011;3265;42.694;23.282;2023-02-07T06:46:53;29.03;;;15.07;;
6463;SDS011;3265;42.694;23.282;2023-02-07T06:49:22;30.93;;;15.70;;
6463;SDS011;3265;42.694;23.282;2023-02-07T06:51:49;31.80;;;15.30;;
6463;SDS011;3265;42.694;23.282;2023-02-07T06:54:16;31.53;;;16.20;;
6463;SDS011;3265;42.694;23.282;2023-02-07T06:56:43;27.53;;;14.10;;
6463;SDS011;3265;42.694;23.282;2023-02-07T06:59:09;27.73;;;13.63;;
6463;SDS011;3265;42.694;23.282;2023-02-07T07:01:36;28.53;;;14.37;;
6463;SDS011;3265;42.694;23.282;2023-02-07T07:04:04;26.97;;;13.97;;
6463;SDS011;3265;42.694;23.282;2023-02-07T07:06:31;26.47;;;14.20;;
6463;SDS011;3265;42.694;23.282;2023-02-07T07:08:58;26.37;;;14.10;;
6463;SDS011;3265;42.694;23.282;2023-02-07T07:11:25;25.80;;;14.67;;
6463;SDS011;3265;42.694;23.282;2023-02-07T07:13:52;32.23;;;15.93;;
6463;SDS011;3265;42.694;23.282;2023-02-07T07:16:19;31.13;;;15.87;;
6463;SDS011;3265;42.694;23.282;2023-02-07T07:18:45;31.23;;;15.10;;
6463;SDS011;3265;42.694;23.282;2023-02-07T07:21:14;35.03;;;14.60;;
6463;SDS011;3265;42.694;23.282;2023-02-07T07:23:40;29.17;;;14.37;;
6463;SDS011;3265;42.694;23.282;2023-02-07T07:26:07;24.63;;;13.70;;
6463;SDS011;3265;42.694;23.282;2023-02-07T07:28:34;29.63;;;13.87;;
6463;SDS011;3265;42.694;23.282;2023-02-07T07:31:02;23.27;;;12.90;;
6463;SDS011;3265;42.694;23.282;2023-02-07T07:33:29;21.97;;;12.73;;
6463;SDS011;3265;42.694;23.282;2023-02-07T07:35:56;25.07;;;13.30;;
6463;SDS011;3265;42.694;23.282;2023-02-07T07:38:24;28.20;;;13.80;;
6463;SDS011;3265;42.694;23.282;2023-02-07T07:40:51;28.93;;;13.77;;
6463;SDS011;3265;42.694;23.282;2023-02-07T07:43:18;34.43;;;14.93;;
6463;SDS011;3265;42.694;23.282;2023-02-07T07:45:48;30.70;;;15.00;;
6463;SDS011;3265;42.694;23.282;2023-02-07T07:48:18;30.03;;;14.80;;
6463;SDS011;3265;42.694;23.282;2023-02-07T07:50:45;32.40;;;15.20;;
6463;SDS011;3265;42.694;23.282;2023-02-07T07:53:12;32.70;;;15.57;;
6463;SDS011;3265;42.694;23.282;2023-02-07T07:55:41;36.87;;;16.00;;
6463;SDS011;3265;42.694;23.282;2023-02-07T07:58:08;31.33;;;15.70;;
6463;SDS011;3265;42.694;23.282;2023-02-07T08:00:34;29.17;;;16.10;;
6463;SDS011;3265;42.694;23.282;2023-02-07T08:03:01;33.00;;;16.67;;
6463;SDS011;3265;42.694;23.282;2023-02-07T08:05:28;30.37;;;15.43;;
6463;SDS011;3265;42.694;23.282;2023-02-07T08:07:55;24.27;;;13.23;;
6463;SDS011;3265;42.694;23.282;2023-02-07T08:10:22;24.27;;;12.67;;
6463;SDS011;3265;42.694;23.282;2023-02-07T08:12:50;25.03;;;13.40;;
6463;SDS011;3265;42.694;23.282;2023-02-07T08:15:17;29.23;;;14.17;;
6463;SDS011;3265;42.694;23.282;2023-02-07T08:17:44;26.23;;;13.93;;
6463;SDS011;3265;42.694;23.282;2023-02-07T08:20:11;22.53;;;13.07;;
6463;SDS011;3265;42.694;23.282;2023-02-07T08:22:38;24.00;;;13.10;;
6463;SDS011;3265;42.694;23.282;2023-02-07T08:25:05;26.37;;;13.10;;
6463;SDS011;3265;42.694;23.282;2023-02-07T08:27:33;23.83;;;13.17;;
6463;SDS011;3265;42.694;23.282;2023-02-07T08:30:04;25.90;;;12.70;;
6463;SDS011;3265;42.694;23.282;2023-02-07T08:32:33;32.80;;;13.43;;
6463;SDS011;3265;42.694;23.282;2023-02-07T08:35:00;24.73;;;13.80;;
6463;SDS011;3265;42.694;23.282;2023-02-07T08:37:27;23.90;;;13.90;;
6463;SDS011;3265;42.694;23.282;2023-02-07T08:39:54;32.67;;;15.37;;
6463;SDS011;3265;42.694;23.282;2023-02-07T08:42:22;27.87;;;15.10;;
6463;SDS011;3265;42.694;23.282;2023-02-07T08:44:49;20.70;;;11.87;;
6463;SDS011;3265;42.694;23.282;2023-02-07T08:47:17;29.90;;;15.30;;
6463;SDS011;3265;42.694;23.282;2023-02-07T08:49:45;30.17;;;15.23;;
6463;SDS011;3265;42.694;23.282;2023-02-07T08:52:11;25.03;;;13.43;;
6463;SDS011;3265;42.694;23.282;2023-02-07T08:54:38;20.70;;;12.17;;
6463;SDS011;3265;42.694;23.282;2023-02-07T08:57:05;17.03;;;9.33;;
6463;SDS011;3265;42.694;23.282;2023-02-07T08:59:32;18.67;;;10.03;;
6463;SDS011;3265;42.694;23.282;2023-02-07T09:01:59;19.83;;;10.40;;
6463;SDS011;3265;42.694;23.282;2023-02-07T09:04:27;27.53;;;14.27;;
6463;SDS011;3265;42.694;23.282;2023-02-07T09:06:54;23.50;;;13.67;;
6463;SDS011;3265;42.694;23.282;2023-02-07T09:09:21;27.60;;;14.53;;
6463;SDS011;3265;42.694;23.282;2023-02-07T09:11:49;25.03;;;13.63;;
6463;SDS011;3265;42.694;23.282;2023-02-07T09:14:16;25.73;;;12.93;;
6463;SDS011;3265;42.694;23.282;2023-02-07T09:16:46;27.43;;;13.43;;
6463;SDS011;3265;42.694;23.282;2023-02-07T09:19:13;23.57;;;12.40;;
6463;SDS011;3265;42.694;23.282;2023-02-07T09:21:41;18.73;;;11.47;;
6463;SDS011;3265;42.694;23.282;2023-02-07T09:24:08;23.40;;;12.80;;
6463;SDS011;3265;42.694;23.282;2023-02-07T09:26:35;26.23;;;14.43;;
6463;SDS011;3265;42.694;23.282;2023-02-07T09:29:03;28.40;;;14.27;;
6463;SDS011;3265;42.694;23.282;2023-02-07T09:31:30;30.07;;;14.77;;
6463;SDS011;3265;42.694;23.282;2023-02-07T09:33:58;27.70;;;14.03;;
6463;SDS011;3265;42.694;23.282;2023-02-07T09:36:27;23.87;;;13.03;;
6463;SDS011;3265;42.694;23.282;2023-02-07T09:38:56;21.53;;;12.00;;
6463;SDS011;3265;42.694;23.282;2023-02-07T09:41:25;22.20;;;11.83;;
6463;SDS011;3265;42.694;23.282;2023-02-07T09:44:02;19.83;;;11.77;;
6463;SDS011;3265;42.694;23.282;2023-02-07T09:46:34;21.37;;;11.57;;
6463;SDS011;3265;42.694;23.282;2023-02-07T09:49:05;215.77;;;22.83;;
6463;SDS011;3265;42.694;23.282;2023-02-07T09:51:37;73.07;;;15.97;;
6463;SDS011;3265;42.694;23.282;2023-02-07T09:54:11;66.77;;;16.33;;
6463;SDS011;3265;42.694;23.282;2023-02-07T09:56:43;29.67;;;14.90;;
6463;SDS011;3265;42.694;23.282;2023-02-07T09:59:15;34.97;;;14.67;;
6463;SDS011;3265;42.694;23.282;2023-02-07T10:01:50;28.80;;;15.20;;
6463;SDS011;3265;42.694;23.282;2023-02-07T10:04:26;23.47;;;13.27;;
6463;SDS011;3265;42.694;23.282;2023-02-07T10:06:55;30.80;;;15.53;;
6463;SDS011;3265;42.694;23.282;2023-02-07T10:09:26;26.27;;;15.17;;
6463;SDS011;3265;42.694;23.282;2023-02-07T10:11:55;25.47;;;14.57;;
6463;SDS011;3265;42.694;23.282;2023-02-07T10:17:31;23.67;;;12.27;;
6463;SDS011;3265;42.694;23.282;2023-02-07T10:20:25;26.53;;;13.13;;
6463;SDS011;3265;42.694;23.282;2023-02-07T10:23:00;22.20;;;12.73;;
6463;SDS011;3265;42.694;23.282;2023-02-07T10:25:37;21.57;;;12.17;;
6463;SDS011;3265;42.694;23.282;2023-02-07T10:28:19;24.73;;;13.77;;
6463;SDS011;3265;42.694;23.282;2023-02-07T10:30:59;23.00;;;12.60;;
6463;SDS011;3265;42.694;23.282;2023-02-07T10:33:31;24.43;;;13.33;;
6463;SDS011;3265;42.694;23.282;2023-02-07T10:36:02;23.53;;;12.60;;
6463;SDS011;3265;42.694;23.282;2023-02-07T10:38:33;24.87;;;13.67;;
6463;SDS011;3265;42.694;23.282;2023-02-07T10:41:05;23.50;;;13.27;;
6463;SDS011;3265;42.694;23.282;2023-02-07T10:43:39;23.73;;;13.43;;
6463;SDS011;3265;42.694;23.282;2023-02-07T10:46:08;22.93;;;12.63;;
6463;SDS011;3265;42.694;23.282;2023-02-07T10:48:38;23.27;;;13.67;;
6463;SDS011;3265;42.694;23.282;2023-02-07T10:51:10;22.20;;;12.97;;
6463;SDS011;3265;42.694;23.282;2023-02-07T10:53:46;17.20;;;11.03;;
6463;SDS011;3265;42.694;23.282;2023-02-07T10:56:17;17.40;;;10.37;;
6463;SDS011;3265;42.694;23.282;2023-02-07T10:58:45;18.10;;;11.43;;
6463;SDS011;3265;42.694;23.282;2023-02-07T11:01:16;19.63;;;10.67;;
6463;SDS011;3265;42.694;23.282;2023-02-07T11:03:44;18.67;;;11.10;;
6463;SDS011;3265;42.694;23.282;2023-02-07T11:06:12;22.43;;;11.83;;
6463;SDS011;3265;42.694;23.282;2023-02-07T11:08:40;18.50;;;10.20;;
6463;SDS011;3265;42.694;23.282;2023-02-07T11:11:24;18.47;;;10.60;;
6463;SDS011;3265;42.694;23.282;2023-02-07T11:13:57;17.70;;;11.10;;
6463;SDS011;3265;42.694;23.282;2023-02-07T11:16:31;21.83;;;12.30;;
6463;SDS011;3265;42.694;23.282;2023-02-07T11:18:59;16.97;;;11.00;;
6463;SDS011;3265;42.694;23.282;2023-02-07T11:21:28;18.83;;;11.03;;
6463;SDS011;3265;42.694;23.282;2023-02-07T11:24:00;14.90;;;8.73;;
6463;SDS011;3265;42.694;23.282;2023-02-07T11:26:32;16.37;;;8.77;;
6463;SDS011;3265;42.694;23.282;2023-02-07T11:29:02;16.33;;;9.77;;
6463;SDS011;3265;42.694;23.282;2023-02-07T11:31:33;15.03;;;8.93;;
6463;SDS011;3265;42.694;23.282;2023-02-07T11:34:06;13.20;;;8.43;;
6463;SDS011;3265;42.694;23.282;2023-02-07T11:36:34;14.73;;;8.70;;
6463;SDS011;3265;42.694;23.282;2023-02-07T11:39:01;16.43;;;9.13;;
6463;SDS011;3265;42.694;23.282;2023-02-07T11:41:30;14.70;;;9.23;;
6463;SDS011;3265;42.694;23.282;2023-02-07T11:43:59;19.43;;;9.70;;
6463;SDS011;3265;42.694;23.282;2023-02-07T11:46:33;23.37;;;12.10;;
6463;SDS011;3265;42.694;23.282;2023-02-07T11:49:02;14.97;;;9.23;;
6463;SDS011;3265;42.694;23.282;2023-02-07T11:51:33;23.20;;;11.53;;
6463;SDS011;3265;42.694;23.282;2023-02-07T11:54:02;17.90;;;10.30;;
6463;SDS011;3265;42.694;23.282;2023-02-07T11:56:37;15.13;;;10.03;;
6463;SDS011;3265;42.694;23.282;2023-02-07T11:59:07;16.37;;;9.80;;
6463;SDS011;3265;42.694;23.282;2023-02-07T12:01:40;18.57;;;9.43;;
6463;SDS011;3265;42.694;23.282;2023-02-07T12:04:10;18.10;;;10.20;;
6463;SDS011;3265;42.694;23.282;2023-02-07T12:06:40;19.30;;;11.60;;
6463;SDS011;3265;42.694;23.282;2023-02-07T12:09:17;24.23;;;12.60;;
6463;SDS011;3265;42.694;23.282;2023-02-07T12:11:51;22.20;;;12.53;;
6463;SDS011;3265;42.694;23.282;2023-02-07T12:14:24;20.07;;;10.83;;
6463;SDS011;3265;42.694;23.282;2023-02-07T12:16:56;17.37;;;9.73;;
6463;SDS011;3265;42.694;23.282;2023-02-07T12:19:27;15.87;;;9.30;;
6463;SDS011;3265;42.694;23.282;2023-02-07T12:22:00;23.57;;;11.67;;
6463;SDS011;3265;42.694;23.282;2023-02-07T12:24:33;17.63;;;9.37;;
6463;SDS011;3265;42.694;23.282;2023-02-07T12:27:09;20.93;;;11.50;;
6463;SDS011;3265;42.694;23.282;2023-02-07T12:29:47;25.60;;;12.50;;
6463;SDS011;3265;42.694;23.282;2023-02-07T12:32:20;25.77;;;12.83;;
6463;SDS011;3265;42.694;23.282;2023-02-07T12:34:57;24.00;;;12.83;;
6463;SDS011;3265;42.694;23.282;2023-02-07T12:37:31;28.53;;;14.60;;
6463;SDS011;3265;42.694;23.282;2023-02-07T12:40:09;30.43;;;14.17;;
6463;SDS011;3265;42.694;23.282;2023-02-07T12:42:45;29.20;;;14.20;;
6463;SDS011;3265;42.694;23.282;2023-02-07T12:45:17;24.60;;;12.93;;
6463;SDS011;3265;42.694;23.282;2023-02-07T12:47:56;24.63;;;14.03;;
6463;SDS011;3265;42.694;23.282;2023-02-07T12:50:33;20.03;;;11.67;;
6463;SDS011;3265;42.694;23.282;2023-02-07T12:53:21;20.83;;;11.37;;
6463;SDS011;3265;42.694;23.282;2023-02-07T12:55:58;20.30;;;11.80;;
6463;SDS011;3265;42.694;23.282;2023-02-07T12:58:47;20.60;;;11.47;;
6463;SDS011;3265;42.694;23.282;2023-02-07T13:01:23;23.77;;;12.83;;
6463;SDS011;3265;42.694;23.282;2023-02-07T13:04:06;25.63;;;13.50;;
6463;SDS011;3265;42.694;23.282;2023-02-07T13:07:04;22.93;;;12.73;;
6463;SDS011;3265;42.694;23.282;2023-02-07T13:09:41;25.97;;;14.13;;
6463;SDS011;3265;42.694;23.282;2023-02-07T13:12:18;22.03;;;12.37;;
6463;SDS011;3265;42.694;23.282;2023-02-07T13:14:54;22.43;;;12.20;;
6463;SDS011;3265;42.694;23.282;2023-02-07T13:17:35;22.73;;;11.60;;
6463;SDS011;3265;42.694;23.282;2023-02-07T13:20:14;25.63;;;14.53;;
6463;SDS011;3265;42.694;23.282;2023-02-07T13:22:52;17.67;;;10.47;;
6463;SDS011;3265;42.694;23.282;2023-02-07T13:25:25;17.90;;;11.00;;
6463;SDS011;3265;42.694;23.282;2023-02-07T13:27:56;18.57;;;10.93;;
6463;SDS011;3265;42.694;23.282;2023-02-07T13:30:30;19.70;;;11.03;;
6463;SDS011;3265;42.694;23.282;2023-02-07T13:33:03;21.43;;;12.40;;
6463;SDS011;3265;42.694;23.282;2023-02-07T13:35:44;15.60;;;8.77;;
6463;SDS011;3265;42.694;23.282;2023-02-07T13:38:13;17.30;;;10.37;;
6463;SDS011;3265;42.694;23.282;2023-02-07T13:40:49;18.93;;;11.07;;
6463;SDS011;3265;42.694;23.282;2023-02-07T13:43:22;19.30;;;11.33;;
6463;SDS011;3265;42.694;23.282;2023-02-07T13:46:03;18.77;;;10.63;;
6463;SDS011;3265;42.694;23.282;2023-02-07T13:48:40;19.33;;;11.77;;
6463;SDS011;3265;42.694;23.282;2023-02-07T13:51:16;22.70;;;12.30;;
6463;SDS011;3265;42.694;23.282;2023-02-07T13:53:50;23.47;;;12.03;;
6463;SDS011;3265;42.694;23.282;2023-02-07T13:56:31;20.63;;;12.73;;
6463;SDS011;3265;42.694;23.282;2023-02-07T13:59:32;23.53;;;13.57;;
6463;SDS011;3265;42.694;23.282;2023-02-07T14:02:05;22.17;;;12.50;;
6463;SDS011;3265;42.694;23.282;2023-02-07T14:04:46;17.77;;;11.17;;
6463;SDS011;3265;42.694;23.282;2023-02-07T14:07:20;24.60;;;13.00;;
6463;SDS011;3265;42.694;23.282;2023-02-07T14:09:50;27.50;;;15.10;;
6463;SDS011;3265;42.694;23.282;2023-02-07T14:12:18;28.70;;;15.77;;
6463;SDS011;3265;42.694;23.282;2023-02-07T14:14:47;31.47;;;15.50;;
6463;SDS011;3265;42.694;23.282;2023-02-07T14:17:54;36.77;;;18.47;;
6463;SDS011;3265;42.694;23.282;2023-02-07T14:23:16;28.17;;;14.47;;
6463;SDS011;3265;42.694;23.282;2023-02-07T14:25:44;30.30;;;16.17;;
6463;SDS011;3265;42.694;23.282;2023-02-07T14:28:29;44.03;;;20.40;;
6463;SDS011;3265;42.694;23.282;2023-02-07T14:30:58;38.60;;;18.77;;
6463;SDS011;3265;42.694;23.282;2023-02-07T14:33:34;28.57;;;15.13;;
6463;SDS011;3265;42.694;23.282;2023-02-07T14:36:16;34.07;;;17.37;;
6463;SDS011;3265;42.694;23.282;2023-02-07T14:38:59;26.73;;;14.80;;
6463;SDS011;3265;42.694;23.282;2023-02-07T14:41:29;28.40;;;14.77;;
6463;SDS011;3265;42.694;23.282;2023-02-07T14:43:58;29.30;;;13.37;;
6463;SDS011;3265;42.694;23.282;2023-02-07T14:46:28;26.57;;;14.60;;
6463;SDS011;3265;42.694;23.282;2023-02-07T14:49:00;31.13;;;14.80;;
6463;SDS011;3265;42.694;23.282;2023-02-07T14:51:31;32.30;;;16.53;;
6463;SDS011;3265;42.694;23.282;2023-02-07T14:54:05;34.00;;;15.60;;
6463;SDS011;3265;42.694;23.282;2023-02-07T14:56:46;24.80;;;12.30;;
6463;SDS011;3265;42.694;23.282;2023-02-07T14:59:17;27.57;;;12.17;;
6463;SDS011;3265;42.694;23.282;2023-02-07T15:01:52;30.33;;;14.13;;
6463;SDS011;3265;42.694;23.282;2023-02-07T15:04:20;37.87;;;16.97;;
6463;SDS011;3265;42.694;23.282;2023-02-07T15:06:47;34.07;;;17.73;;
6463;SDS011;3265;42.694;23.282;2023-02-07T15:09:18;32.63;;;15.77;;
6463;SDS011;3265;42.694;23.282;2023-02-07T15:11:48;39.40;;;17.37;;
6463;SDS011;3265;42.694;23.282;2023-02-07T15:14:20;28.17;;;14.83;;
6463;SDS011;3265;42.694;23.282;2023-02-07T15:16:52;26.13;;;14.43;;